Farmville, VA

7:55 PM EST on December 08, 2016 (GMT -0500)
Farmville Regional

Weather History for KFVX - January, 2014

Change the Weather History Date:

Monday, January 13, 2014

  Actual Average Record
Temperature  
Mean Temperature 48 °F -  
Max Temperature 62 °F 44 °F 78 °F (1960)
Min Temperature 33 °F 23 °F -4 °F (1962)
Degree Days  
Heating Degree Days 18    
Moisture  
Dew Point 31 °F    
Average Humidity 55    
Maximum Humidity 87    
Minimum Humidity 30    
Precipitation  
Precipitation 0.00 in - - ()
Sea Level Pressure  
Sea Level Pressure 30.02 in    
Wind  
Wind Speed 4 mph (SSW)    
Max Wind Speed 20 mph    
Max Gust Speed 28 mph    
Visibility 10 miles    
Events      
Averages and records for this station are not official NWS values.
T = Trace of Precipitation, MM = Missing Value Source: NWS Daily Summary

Daily Weather History Graph

Daily Weather History Graph

Search for Another Location

Airport or City:

Trip Planner

Search our weather history database for the weather conditions in past years. The results will help you decide how hot, cold, wet, or windy it might be!

Date:

Astronomy

Jan. 13, 2014 Rise Set
Actual Time 7:27 AM EST 5:17 PM EST
Civil Twilight 6:58 AM EST 5:46 PM EST
Nautical Twilight 6:26 AM EST 6:18 PM EST
Astronomical Twilight 5:55 AM EST 6:49 PM EST
Moon 3:31 PM EST (1/13) 5:15 AM EST (1/13)
Length of Visible Light 10h 47m
Length of Day
9h 50m
Waxing Gibbous, 95% of the Moon is Illuminated
Jan 13
Waxing Gibbous
Jan 15
Full
Jan 24
Last Quarter
Jan 30
New
Feb 6
First Quarter

Hourly Weather History & Observations

Time (EST) Temp. Windchill Dew Point Humidity Pressure Visibility Wind Dir Wind Speed Gust Speed Precip Events Conditions
12:15 AM 35.6 °F - 26.6 °F 70% 30.11 in 10.0 mi Calm Calm - N/A   Clear
12:35 AM 39.2 °F - 26.6 °F 61% 30.11 in 10.0 mi Calm Calm - N/A   Clear
12:55 AM 37.4 °F - 28.4 °F 70% 30.10 in 10.0 mi Calm Calm - N/A   Clear
1:15 AM 33.8 °F - 28.4 °F 81% 30.10 in 10.0 mi Calm Calm - N/A   Clear
1:35 AM 35.6 °F - 28.4 °F 75% 30.10 in 10.0 mi Calm Calm - N/A   Clear
1:55 AM 37.4 °F - 26.6 °F 65% 30.10 in 10.0 mi Calm Calm - N/A   Clear
2:15 AM 37.4 °F 34.9 °F 26.6 °F 65% 30.11 in 10.0 mi South 3.5 mph - N/A   Clear
2:35 AM 33.8 °F - 26.6 °F 75% 30.11 in 10.0 mi Calm Calm - N/A   Clear
2:55 AM 35.6 °F - 28.4 °F 75% 30.10 in 10.0 mi Calm Calm - N/A   Clear
3:15 AM 35.6 °F - 26.6 °F 70% 30.10 in 10.0 mi Calm Calm - N/A   Clear
3:35 AM 33.8 °F - 26.6 °F 75% 30.09 in 10.0 mi Calm Calm - N/A   Clear
3:55 AM 35.6 °F - 26.6 °F 70% 30.09 in 10.0 mi Calm Calm - N/A   Clear
4:15 AM 33.8 °F - 26.6 °F 75% 30.09 in 10.0 mi Calm Calm - N/A   Clear
4:35 AM 35.6 °F - 26.6 °F 70% 30.09 in 10.0 mi Calm Calm - N/A   Clear
4:55 AM 37.4 °F - 26.6 °F 65% 30.09 in 10.0 mi Calm Calm - N/A   Clear
5:15 AM 37.4 °F - 28.4 °F 70% 30.10 in 10.0 mi Calm Calm - N/A   Clear
5:35 AM 35.6 °F - 26.6 °F 70% 30.09 in 10.0 mi Calm Calm - N/A   Clear
5:55 AM 33.8 °F - 26.6 °F 75% 30.09 in 10.0 mi Calm Calm - N/A   Clear
6:15 AM 35.6 °F - 28.4 °F 75% 30.09 in 10.0 mi Calm Calm - N/A   Clear
6:35 AM 35.6 °F - 28.4 °F 75% 30.10 in 10.0 mi Calm Calm - N/A   Clear
6:55 AM 33.8 °F - 28.4 °F 81% 30.10 in 10.0 mi Calm Calm - N/A   Clear
7:15 AM 33.8 °F - 30.2 °F 87% 30.10 in 10.0 mi Calm Calm - N/A   Clear
7:35 AM 33.8 °F - 30.2 °F 87% 30.11 in 10.0 mi Calm Calm - N/A   Clear
7:55 AM 33.8 °F - 30.2 °F 87% 30.10 in 10.0 mi Calm Calm - N/A   Clear
8:15 AM 33.8 °F 29.6 °F 30.2 °F 87% 30.10 in 10.0 mi South 4.6 mph - N/A   Clear
8:35 AM 37.4 °F 32.1 °F 33.8 °F 87% 30.10 in 10.0 mi South 6.9 mph - N/A   Clear
8:55 AM 41.0 °F 36.4 °F 32.0 °F 70% 30.11 in 10.0 mi SSW 6.9 mph - N/A   Clear
9:15 AM 44.6 °F 40.2 °F 32.0 °F 61% 30.10 in 10.0 mi South 8.1 mph - N/A   Clear
9:35 AM 46.4 °F 41.1 °F 33.8 °F 62% 30.09 in 10.0 mi SSW 11.5 mph - N/A   Clear
9:55 AM 48.2 °F - 33.8 °F 58% 30.08 in 10.0 mi SSW 10.4 mph - N/A   Clear
10:15 AM 51.8 °F - 32.0 °F 47% 30.08 in 10.0 mi SSW 13.8 mph - N/A   Clear
10:35 AM 53.6 °F - 32.0 °F 44% 30.08 in 10.0 mi SSW 11.5 mph - N/A   Clear
10:55 AM 55.4 °F - 33.8 °F 44% 30.07 in 10.0 mi SSW 10.4 mph 17.3 mph N/A   Clear
11:15 AM 57.2 °F - 30.2 °F 36% 30.05 in 10.0 mi SSW 17.3 mph 21.9 mph N/A   Clear
11:35 AM 57.2 °F - 30.2 °F 36% 30.04 in 10.0 mi SSW 12.7 mph 21.9 mph N/A   Clear
11:55 AM 59.0 °F - 30.2 °F 34% 30.02 in 10.0 mi SSW 15.0 mph - N/A   Clear
12:15 PM 60.8 °F - 30.2 °F 31% 30.01 in 10.0 mi SSW 13.8 mph 21.9 mph N/A   Clear
12:35 PM 60.8 °F - 30.2 °F 31% 29.99 in 10.0 mi SSW 16.1 mph 24.2 mph N/A   Clear
12:55 PM 60.8 °F - 30.2 °F 31% 29.98 in 10.0 mi SSW 19.6 mph 25.3 mph N/A   Clear
1:15 PM 60.8 °F - 30.2 °F 31% 29.97 in 10.0 mi SSW 18.4 mph 27.6 mph N/A   Clear
1:35 PM 60.8 °F - 30.2 °F 31% 29.97 in 10.0 mi SSW 12.7 mph - N/A   Clear
1:55 PM 62.6 °F - 30.2 °F 30% 29.96 in 10.0 mi South 17.3 mph - N/A   Clear
2:15 PM 60.8 °F - 30.2 °F 31% 29.96 in 10.0 mi South 18.4 mph 24.2 mph N/A   Clear
2:35 PM 60.8 °F - 32.0 °F 34% 29.95 in 10.0 mi South 11.5 mph 18.4 mph N/A   Clear
2:55 PM 60.8 °F - 30.2 °F 31% 29.96 in 10.0 mi South 15.0 mph 18.4 mph N/A   Clear
3:15 PM 60.8 °F - 30.2 °F 31% 29.97 in 10.0 mi SSW 11.5 mph 19.6 mph N/A   Clear
3:35 PM 60.8 °F - 32.0 °F 34% 29.97 in 10.0 mi South 10.4 mph 16.1 mph N/A   Clear
3:55 PM 59.0 °F - 30.2 °F 34% 29.96 in 10.0 mi South 11.5 mph 16.1 mph N/A   Clear
4:15 PM 57.2 °F - 32.0 °F 38% 29.96 in 10.0 mi South 10.4 mph - N/A   Clear
4:35 PM 57.2 °F - 32.0 °F 38% 29.97 in 10.0 mi SSW 9.2 mph - N/A   Clear
4:55 PM 55.4 °F - 32.0 °F 41% 29.95 in 10.0 mi South 8.1 mph - N/A   Clear
5:15 PM 55.4 °F - 32.0 °F 41% 29.95 in 10.0 mi South 8.1 mph - N/A   Clear
5:35 PM 55.4 °F - 30.2 °F 38% 29.95 in 10.0 mi SSW 5.8 mph - N/A   Clear
5:55 PM 53.6 °F - 30.2 °F 41% 29.95 in 10.0 mi South 5.8 mph - N/A   Clear
6:15 PM 53.6 °F - 33.8 °F 47% 29.95 in 10.0 mi South 9.2 mph - N/A   Clear
6:35 PM 51.8 °F - 33.8 °F 50% 29.93 in 10.0 mi South 6.9 mph - N/A   Clear
6:55 PM 53.6 °F - 33.8 °F 47% 29.95 in 10.0 mi South 8.1 mph - N/A   Clear
7:15 PM 53.6 °F - 33.8 °F 47% 29.94 in 10.0 mi South 9.2 mph - N/A   Clear
7:35 PM 53.6 °F - 33.8 °F 47% 29.95 in 10.0 mi SSW 9.2 mph - N/A   Clear
7:55 PM 53.6 °F - 33.8 °F 47% 29.95 in 10.0 mi SSW 9.2 mph - N/A   Clear
8:15 PM 53.6 °F - 33.8 °F 47% 29.96 in 10.0 mi SSW 6.9 mph - N/A   Clear
8:35 PM 53.6 °F - 33.8 °F 47% 29.95 in 10.0 mi SSW 8.1 mph - N/A   Clear
8:55 PM 51.8 °F - 33.8 °F 50% 29.94 in 10.0 mi SSW 8.1 mph - N/A   Clear
9:15 PM 50.0 °F - 33.8 °F 54% 29.93 in 10.0 mi South 6.9 mph - N/A   Clear
9:35 PM 51.8 °F - 33.8 °F 50% 29.94 in 10.0 mi SSW 5.8 mph - N/A   Clear
9:55 PM 50.0 °F - 33.8 °F 54% 29.94 in 10.0 mi South 5.8 mph - N/A   Clear
10:15 PM 51.8 °F - 33.8 °F 50% 29.94 in 10.0 mi SSW 5.8 mph - N/A   Clear
10:35 PM 53.6 °F - 33.8 °F 47% 29.94 in 10.0 mi SSW 6.9 mph - N/A   Clear
10:55 PM 51.8 °F - 33.8 °F 50% 29.93 in 10.0 mi South 6.9 mph - N/A   Mostly Cloudy
11:15 PM 51.8 °F - 33.8 °F 50% 29.93 in 10.0 mi SSW 5.8 mph - N/A   Overcast
11:35 PM 51.8 °F - 33.8 °F 50% 29.92 in 10.0 mi SW 4.6 mph - N/A   Mostly Cloudy
11:55 PM 51.8 °F - 33.8 °F 50% 29.91 in 10.0 mi WSW 3.5 mph - N/A   Overcast